sensor_id;sensor_type;location;lat;lon;timestamp;pressure;altitude;pressure_sealevel;temperature;humidity
51289;BME280;37372;52.294;5.152;2022-12-07T00:01:29;101899.53;;;1.84;100.00
51289;BME280;37372;52.294;5.152;2022-12-07T00:03:56;101899.41;;;1.81;100.00
51289;BME280;37372;52.294;5.152;2022-12-07T00:06:35;101898.41;;;1.77;100.00
51289;BME280;37372;52.294;5.152;2022-12-07T00:09:03;101890.56;;;1.87;100.00
51289;BME280;37372;52.294;5.152;2022-12-07T00:11:29;101888.25;;;1.98;100.00
51289;BME280;37372;52.294;5.152;2022-12-07T00:14:00;101892.47;;;2.04;100.00
51289;BME280;37372;52.294;5.152;2022-12-07T00:16:28;101890.84;;;2.03;100.00
51289;BME280;37372;52.294;5.152;2022-12-07T00:18:54;101892.31;;;2.01;100.00
51289;BME280;37372;52.294;5.152;2022-12-07T00:21:31;101882.56;;;1.94;100.00
51289;BME280;37372;52.294;5.152;2022-12-07T00:23:58;101884.41;;;1.82;100.00
51289;BME280;37372;52.294;5.152;2022-12-07T00:26:34;101881.66;;;1.73;100.00
51289;BME280;37372;52.294;5.152;2022-12-07T00:29:03;101884.59;;;1.68;100.00
51289;BME280;37372;52.294;5.152;2022-12-07T00:31:32;101884.63;;;1.59;100.00
51289;BME280;37372;52.294;5.152;2022-12-07T00:34:03;101877.63;;;1.62;100.00
51289;BME280;37372;52.294;5.152;2022-12-07T00:36:29;101870.47;;;1.52;100.00
51289;BME280;37372;52.294;5.152;2022-12-07T00:38:55;101864.63;;;1.45;100.00
51289;BME280;37372;52.294;5.152;2022-12-07T00:41:23;101860.56;;;1.51;100.00
51289;BME280;37372;52.294;5.152;2022-12-07T00:43:49;101864.47;;;1.59;100.00
51289;BME280;37372;52.294;5.152;2022-12-07T00:46:16;101862.31;;;1.64;100.00
51289;BME280;37372;52.294;5.152;2022-12-07T00:48:41;101865.09;;;1.64;100.00
51289;BME280;37372;52.294;5.152;2022-12-07T00:51:07;101865.41;;;1.63;100.00
51289;BME280;37372;52.294;5.152;2022-12-07T00:53:36;101872.41;;;1.60;100.00
51289;BME280;37372;52.294;5.152;2022-12-07T00:56:10;101860.22;;;1.61;100.00
51289;BME280;37372;52.294;5.152;2022-12-07T00:58:36;101866.53;;;1.70;100.00
51289;BME280;37372;52.294;5.152;2022-12-07T01:01:03;101862.78;;;1.75;100.00
51289;BME280;37372;52.294;5.152;2022-12-07T01:03:29;101873.84;;;1.75;100.00
51289;BME280;37372;52.294;5.152;2022-12-07T01:05:56;101860.34;;;1.73;100.00
51289;BME280;37372;52.294;5.152;2022-12-07T01:08:22;101859.25;;;1.66;100.00
51289;BME280;37372;52.294;5.152;2022-12-07T01:10:48;101856.31;;;1.62;100.00
51289;BME280;37372;52.294;5.152;2022-12-07T01:13:15;101859.94;;;1.45;100.00
51289;BME280;37372;52.294;5.152;2022-12-07T01:15:42;101865.81;;;1.26;100.00
51289;BME280;37372;52.294;5.152;2022-12-07T01:18:07;101878.50;;;1.19;100.00
51289;BME280;37372;52.294;5.152;2022-12-07T01:20:33;101869.72;;;1.08;100.00
51289;BME280;37372;52.294;5.152;2022-12-07T01:22:59;101876.38;;;0.98;100.00
51289;BME280;37372;52.294;5.152;2022-12-07T01:25:24;101878.81;;;0.91;100.00
51289;BME280;37372;52.294;5.152;2022-12-07T01:27:49;101880.63;;;0.96;100.00
51289;BME280;37372;52.294;5.152;2022-12-07T01:30:15;101886.78;;;0.93;100.00
51289;BME280;37372;52.294;5.152;2022-12-07T01:32:40;101890.38;;;0.93;100.00
51289;BME280;37372;52.294;5.152;2022-12-07T01:35:06;101886.16;;;1.13;100.00
51289;BME280;37372;52.294;5.152;2022-12-07T01:37:38;101884.81;;;1.37;100.00
51289;BME280;37372;52.294;5.152;2022-12-07T01:40:12;101890.66;;;1.52;100.00
51289;BME280;37372;52.294;5.152;2022-12-07T01:42:37;101880.84;;;1.72;100.00
51289;BME280;37372;52.294;5.152;2022-12-07T01:47:46;101875.34;;;2.11;100.00
51289;BME280;37372;52.294;5.152;2022-12-07T01:50:12;101869.78;;;2.20;100.00
51289;BME280;37372;52.294;5.152;2022-12-07T01:52:39;101870.88;;;2.27;100.00
51289;BME280;37372;52.294;5.152;2022-12-07T01:55:08;101869.25;;;2.26;100.00
51289;BME280;37372;52.294;5.152;2022-12-07T01:57:38;101861.47;;;2.20;100.00
51289;BME280;37372;52.294;5.152;2022-12-07T02:00:06;101869.16;;;2.14;100.00
51289;BME280;37372;52.294;5.152;2022-12-07T02:02:35;101868.97;;;2.19;100.00
51289;BME280;37372;52.294;5.152;2022-12-07T02:05:04;101857.53;;;2.21;100.00
51289;BME280;37372;52.294;5.152;2022-12-07T02:07:31;101865.66;;;2.26;100.00
51289;BME280;37372;52.294;5.152;2022-12-07T02:10:18;101857.84;;;2.28;100.00
51289;BME280;37372;52.294;5.152;2022-12-07T02:12:49;101862.03;;;2.34;100.00
51289;BME280;37372;52.294;5.152;2022-12-07T02:15:16;101860.09;;;2.34;100.00
51289;BME280;37372;52.294;5.152;2022-12-07T02:18:05;101850.81;;;2.30;100.00
51289;BME280;37372;52.294;5.152;2022-12-07T02:20:46;101846.09;;;2.31;100.00
51289;BME280;37372;52.294;5.152;2022-12-07T02:31:31;101849.81;;;2.35;100.00
51289;BME280;37372;52.294;5.152;2022-12-07T02:34:05;101844.41;;;2.38;100.00
51289;BME280;37372;52.294;5.152;2022-12-07T02:36:39;101850.97;;;2.34;100.00
51289;BME280;37372;52.294;5.152;2022-12-07T02:39:17;101852.44;;;2.31;100.00
51289;BME280;37372;52.294;5.152;2022-12-07T02:41:47;101852.31;;;2.28;100.00
51289;BME280;37372;52.294;5.152;2022-12-07T02:44:17;101851.50;;;2.27;100.00
51289;BME280;37372;52.294;5.152;2022-12-07T02:46:52;101840.25;;;2.24;100.00
51289;BME280;37372;52.294;5.152;2022-12-07T02:49:19;101838.66;;;2.23;100.00
51289;BME280;37372;52.294;5.152;2022-12-07T02:51:46;101840.66;;;2.13;100.00
51289;BME280;37372;52.294;5.152;2022-12-07T02:54:14;101837.78;;;2.01;100.00
51289;BME280;37372;52.294;5.152;2022-12-07T03:02:06;101837.19;;;1.87;100.00
51289;BME280;37372;52.294;5.152;2022-12-07T03:07:42;101840.16;;;1.82;100.00
51289;BME280;37372;52.294;5.152;2022-12-07T03:12:53;101835.78;;;1.72;100.00
51289;BME280;37372;52.294;5.152;2022-12-07T03:15:26;101839.53;;;1.67;100.00
51289;BME280;37372;52.294;5.152;2022-12-07T03:17:55;101827.34;;;1.60;100.00
51289;BME280;37372;52.294;5.152;2022-12-07T03:20:24;101832.44;;;1.49;100.00
51289;BME280;37372;52.294;5.152;2022-12-07T03:22:51;101835.88;;;1.37;100.00
51289;BME280;37372;52.294;5.152;2022-12-07T03:25:18;101849.72;;;1.28;100.00
51289;BME280;37372;52.294;5.152;2022-12-07T03:27:54;101846.94;;;1.37;100.00
51289;BME280;37372;52.294;5.152;2022-12-07T03:30:29;101853.56;;;1.45;100.00
51289;BME280;37372;52.294;5.152;2022-12-07T03:33:20;101855.53;;;1.53;100.00
51289;BME280;37372;52.294;5.152;2022-12-07T03:36:00;101857.47;;;1.61;100.00
51289;BME280;37372;52.294;5.152;2022-12-07T03:38:41;101849.94;;;1.70;100.00
51289;BME280;37372;52.294;5.152;2022-12-07T03:41:22;101838.03;;;1.79;100.00
51289;BME280;37372;52.294;5.152;2022-12-07T03:43:49;101826.25;;;1.99;100.00
51289;BME280;37372;52.294;5.152;2022-12-07T03:46:22;101827.28;;;2.15;100.00
51289;BME280;37372;52.294;5.152;2022-12-07T03:48:57;101821.28;;;2.13;100.00
51289;BME280;37372;52.294;5.152;2022-12-07T03:51:45;101814.78;;;2.09;100.00
51289;BME280;37372;52.294;5.152;2022-12-07T03:54:19;101809.59;;;2.08;100.00
51289;BME280;37372;52.294;5.152;2022-12-07T03:56:47;101819.72;;;2.04;100.00
51289;BME280;37372;52.294;5.152;2022-12-07T03:59:14;101806.88;;;1.99;100.00
51289;BME280;37372;52.294;5.152;2022-12-07T04:01:43;101811.13;;;1.97;100.00
51289;BME280;37372;52.294;5.152;2022-12-07T04:04:08;101816.16;;;1.94;100.00
51289;BME280;37372;52.294;5.152;2022-12-07T04:06:34;101807.34;;;2.01;100.00
51289;BME280;37372;52.294;5.152;2022-12-07T04:08:59;101812.03;;;2.09;100.00
51289;BME280;37372;52.294;5.152;2022-12-07T04:11:25;101812.03;;;2.09;100.00
51289;BME280;37372;52.294;5.152;2022-12-07T04:13:50;101831.72;;;2.08;100.00
51289;BME280;37372;52.294;5.152;2022-12-07T04:16:34;101821.47;;;2.08;100.00
51289;BME280;37372;52.294;5.152;2022-12-07T04:19:00;101820.16;;;2.35;100.00
51289;BME280;37372;52.294;5.152;2022-12-07T04:21:25;101818.28;;;2.48;100.00
51289;BME280;37372;52.294;5.152;2022-12-07T04:23:50;101813.91;;;2.47;100.00
51289;BME280;37372;52.294;5.152;2022-12-07T04:26:16;101819.66;;;2.42;100.00
51289;BME280;37372;52.294;5.152;2022-12-07T04:28:41;101817.53;;;2.39;100.00
51289;BME280;37372;52.294;5.152;2022-12-07T04:31:06;101815.63;;;2.31;100.00
51289;BME280;37372;52.294;5.152;2022-12-07T04:33:32;101811.28;;;2.21;100.00
51289;BME280;37372;52.294;5.152;2022-12-07T04:35:57;101809.88;;;2.15;100.00
51289;BME280;37372;52.294;5.152;2022-12-07T04:38:23;101816.47;;;2.02;100.00
51289;BME280;37372;52.294;5.152;2022-12-07T04:40:48;101810.13;;;2.01;100.00
51289;BME280;37372;52.294;5.152;2022-12-07T04:43:14;101814.69;;;1.97;100.00
51289;BME280;37372;52.294;5.152;2022-12-07T04:45:39;101813.44;;;1.86;100.00
51289;BME280;37372;52.294;5.152;2022-12-07T04:48:04;101803.31;;;1.90;100.00
51289;BME280;37372;52.294;5.152;2022-12-07T04:50:30;101811.63;;;1.90;100.00
51289;BME280;37372;52.294;5.152;2022-12-07T04:52:55;101804.13;;;1.90;100.00
51289;BME280;37372;52.294;5.152;2022-12-07T04:55:20;101803.03;;;1.83;100.00
51289;BME280;37372;52.294;5.152;2022-12-07T04:57:46;101802.88;;;1.79;100.00
51289;BME280;37372;52.294;5.152;2022-12-07T05:00:11;101803.56;;;1.76;100.00
51289;BME280;37372;52.294;5.152;2022-12-07T05:02:37;101795.94;;;1.64;100.00
51289;BME280;37372;52.294;5.152;2022-12-07T05:05:02;101800.50;;;1.60;100.00
51289;BME280;37372;52.294;5.152;2022-12-07T05:07:27;101790.91;;;1.66;100.00
51289;BME280;37372;52.294;5.152;2022-12-07T05:09:53;101796.44;;;1.66;100.00
51289;BME280;37372;52.294;5.152;2022-12-07T05:12:18;101793.38;;;1.59;100.00
51289;BME280;37372;52.294;5.152;2022-12-07T05:14:44;101791.41;;;1.60;100.00
51289;BME280;37372;52.294;5.152;2022-12-07T05:17:09;101800.03;;;1.58;100.00
51289;BME280;37372;52.294;5.152;2022-12-07T05:19:36;101798.75;;;1.56;100.00
51289;BME280;37372;52.294;5.152;2022-12-07T05:22:01;101791.41;;;1.60;100.00
51289;BME280;37372;52.294;5.152;2022-12-07T05:24:27;101799.34;;;1.70;100.00
51289;BME280;37372;52.294;5.152;2022-12-07T05:26:52;101796.09;;;1.68;100.00
51289;BME280;37372;52.294;5.152;2022-12-07T05:29:18;101790.72;;;1.71;100.00
51289;BME280;37372;52.294;5.152;2022-12-07T05:31:43;101795.28;;;1.67;100.00
51289;BME280;37372;52.294;5.152;2022-12-07T05:34:09;101799.88;;;1.63;100.00
51289;BME280;37372;52.294;5.152;2022-12-07T05:36:35;101795.13;;;1.64;100.00
51289;BME280;37372;52.294;5.152;2022-12-07T05:39:00;101799.88;;;1.63;100.00
51289;BME280;37372;52.294;5.152;2022-12-07T05:41:26;101798.53;;;1.69;100.00
51289;BME280;37372;52.294;5.152;2022-12-07T05:44:10;101799.69;;;1.60;100.00
51289;BME280;37372;52.294;5.152;2022-12-07T05:46:35;101802.28;;;1.65;100.00
51289;BME280;37372;52.294;5.152;2022-12-07T05:49:01;101802.63;;;1.63;100.00
51289;BME280;37372;52.294;5.152;2022-12-07T05:51:27;101802.28;;;1.65;100.00
51289;BME280;37372;52.294;5.152;2022-12-07T05:53:52;101795.28;;;1.67;100.00
51289;BME280;37372;52.294;5.152;2022-12-07T05:56:17;101788.63;;;1.60;100.00
51289;BME280;37372;52.294;5.152;2022-12-07T05:58:43;101785.25;;;1.54;100.00
51289;BME280;37372;52.294;5.152;2022-12-07T06:01:27;101793.06;;;1.52;100.00
51289;BME280;37372;52.294;5.152;2022-12-07T06:03:53;101784.28;;;1.50;100.00
51289;BME280;37372;52.294;5.152;2022-12-07T06:06:18;101788.50;;;1.56;100.00
51289;BME280;37372;52.294;5.152;2022-12-07T06:08:43;101779.72;;;1.54;100.00
51289;BME280;37372;52.294;5.152;2022-12-07T06:11:09;101783.91;;;1.60;100.00
51289;BME280;37372;52.294;5.152;2022-12-07T06:13:53;101793.19;;;1.64;100.00
51289;BME280;37372;52.294;5.152;2022-12-07T06:16:18;101789.25;;;1.65;100.00
51289;BME280;37372;52.294;5.152;2022-12-07T06:18:43;101787.75;;;1.77;100.00
51289;BME280;37372;52.294;5.152;2022-12-07T06:21:09;101785.31;;;1.75;100.00
51289;BME280;37372;52.294;5.152;2022-12-07T06:23:34;101789.91;;;1.71;100.00
51289;BME280;37372;52.294;5.152;2022-12-07T06:25:59;101791.88;;;1.62;100.00
51289;BME280;37372;52.294;5.152;2022-12-07T06:28:25;101790.47;;;1.47;100.00
51289;BME280;37372;52.294;5.152;2022-12-07T06:31:00;101791.13;;;1.44;100.00
51289;BME280;37372;52.294;5.152;2022-12-07T06:33:26;101789.34;;;1.39;100.00
51289;BME280;37372;52.294;5.152;2022-12-07T06:35:52;101796.34;;;1.45;100.00
51289;BME280;37372;52.294;5.152;2022-12-07T06:38:18;101807.84;;;1.56;100.00
51289;BME280;37372;52.294;5.152;2022-12-07T06:40:43;101795.81;;;1.61;100.00
51289;BME280;37372;52.294;5.152;2022-12-07T06:43:08;101796.91;;;1.68;100.00
51289;BME280;37372;52.294;5.152;2022-12-07T06:45:34;101792.50;;;1.76;100.00
51289;BME280;37372;52.294;5.152;2022-12-07T06:48:00;101802.41;;;1.77;100.00
51289;BME280;37372;52.294;5.152;2022-12-07T06:50:25;101792.81;;;1.74;100.00
51289;BME280;37372;52.294;5.152;2022-12-07T06:52:51;101798.34;;;1.74;100.00
51289;BME280;37372;52.294;5.152;2022-12-07T06:55:17;101797.84;;;1.72;100.00
51289;BME280;37372;52.294;5.152;2022-12-07T06:57:42;101796.91;;;1.68;100.00
51289;BME280;37372;52.294;5.152;2022-12-07T07:00:08;101792.03;;;1.65;100.00
51289;BME280;37372;52.294;5.152;2022-12-07T07:02:34;101787.31;;;1.66;100.00
51289;BME280;37372;52.294;5.152;2022-12-07T07:04:59;101797.09;;;1.63;100.00
51289;BME280;37372;52.294;5.152;2022-12-07T07:07:24;101792.69;;;1.62;100.00
51289;BME280;37372;52.294;5.152;2022-12-07T07:09:50;101794.16;;;1.60;100.00
51289;BME280;37372;52.294;5.152;2022-12-07T07:12:15;101793.84;;;1.52;100.00
51289;BME280;37372;52.294;5.152;2022-12-07T07:14:41;101796.00;;;1.47;100.00
51289;BME280;37372;52.294;5.152;2022-12-07T07:17:08;101791.81;;;1.41;100.00
51289;BME280;37372;52.294;5.152;2022-12-07T07:19:33;101797.03;;;1.34;100.00
51289;BME280;37372;52.294;5.152;2022-12-07T07:21:59;101796.22;;;1.24;100.00
51289;BME280;37372;52.294;5.152;2022-12-07T07:24:24;101794.13;;;1.21;100.00
51289;BME280;37372;52.294;5.152;2022-12-07T07:26:49;101801.28;;;1.22;100.00
51289;BME280;37372;52.294;5.152;2022-12-07T07:29:15;101800.44;;;1.22;100.00
51289;BME280;37372;52.294;5.152;2022-12-07T07:31:40;101806.31;;;1.20;100.00
51289;BME280;37372;52.294;5.152;2022-12-07T07:34:06;101809.56;;;1.22;100.00
51289;BME280;37372;52.294;5.152;2022-12-07T07:36:32;101804.38;;;1.21;100.00
51289;BME280;37372;52.294;5.152;2022-12-07T07:38:57;101805.16;;;1.21;100.00
51289;BME280;37372;52.294;5.152;2022-12-07T07:41:23;101807.94;;;1.21;100.00
51289;BME280;37372;52.294;5.152;2022-12-07T07:43:48;101813.28;;;1.26;100.00
51289;BME280;37372;52.294;5.152;2022-12-07T07:46:14;101815.03;;;1.40;100.00
51289;BME280;37372;52.294;5.152;2022-12-07T07:48:39;101822.84;;;1.46;100.00
51289;BME280;37372;52.294;5.152;2022-12-07T07:51:06;101831.47;;;1.45;100.00
51289;BME280;37372;52.294;5.152;2022-12-07T07:53:32;101827.34;;;1.60;100.00
51289;BME280;37372;52.294;5.152;2022-12-07T07:55:57;101810.88;;;1.81;100.00
51289;BME280;37372;52.294;5.152;2022-12-07T07:58:23;101810.31;;;1.96;100.00
51289;BME280;37372;52.294;5.152;2022-12-07T08:00:49;101805.19;;;2.07;100.00
51289;BME280;37372;52.294;5.152;2022-12-07T08:03:14;101805.81;;;2.12;100.00
51289;BME280;37372;52.294;5.152;2022-12-07T08:05:40;101822.22;;;2.17;100.00
51289;BME280;37372;52.294;5.152;2022-12-07T08:08:05;101811.47;;;2.16;100.00
51289;BME280;37372;52.294;5.152;2022-12-07T08:10:31;101812.44;;;2.20;100.00
51289;BME280;37372;52.294;5.152;2022-12-07T08:12:57;101819.28;;;2.23;100.00
51289;BME280;37372;52.294;5.152;2022-12-07T08:15:40;101822.13;;;2.35;100.00
51289;BME280;37372;52.294;5.152;2022-12-07T08:18:06;101823.25;;;2.34;100.00
51289;BME280;37372;52.294;5.152;2022-12-07T08:20:33;101824.22;;;2.38;100.00
51289;BME280;37372;52.294;5.152;2022-12-07T08:22:59;101825.84;;;2.39;100.00
51289;BME280;37372;52.294;5.152;2022-12-07T08:25:25;101826.00;;;2.43;100.00
51289;BME280;37372;52.294;5.152;2022-12-07T08:27:50;101837.38;;;2.50;100.00
51289;BME280;37372;52.294;5.152;2022-12-07T08:30:16;101838.09;;;2.59;100.00
51289;BME280;37372;52.294;5.152;2022-12-07T08:32:42;101826.69;;;2.60;100.00
51289;BME280;37372;52.294;5.152;2022-12-07T08:35:09;101823.72;;;2.66;100.00
51289;BME280;37372;52.294;5.152;2022-12-07T08:37:34;101826.28;;;2.71;100.00
51289;BME280;37372;52.294;5.152;2022-12-07T08:39:59;101824.00;;;2.73;100.00
51289;BME280;37372;52.294;5.152;2022-12-07T08:42:25;101820.34;;;2.81;100.00
51289;BME280;37372;52.294;5.152;2022-12-07T08:44:55;101822.09;;;2.86;100.00
51289;BME280;37372;52.294;5.152;2022-12-07T08:47:20;101816.69;;;2.89;100.00
51289;BME280;37372;52.294;5.152;2022-12-07T08:49:47;101810.44;;;2.92;100.00
51289;BME280;37372;52.294;5.152;2022-12-07T08:52:15;101808.16;;;2.94;100.00
51289;BME280;37372;52.294;5.152;2022-12-07T08:54:41;101811.13;;;2.89;100.00
51289;BME280;37372;52.294;5.152;2022-12-07T08:57:07;101803.03;;;2.84;100.00
51289;BME280;37372;52.294;5.152;2022-12-07T08:59:34;101803.59;;;2.77;100.00
51289;BME280;37372;52.294;5.152;2022-12-07T09:02:00;101808.06;;;2.70;100.00
51289;BME280;37372;52.294;5.152;2022-12-07T09:04:26;101810.34;;;2.68;100.00
51289;BME280;37372;52.294;5.152;2022-12-07T09:06:52;101812.91;;;2.73;100.00
51289;BME280;37372;52.294;5.152;2022-12-07T09:09:18;101820.22;;;2.77;100.00
51289;BME280;37372;52.294;5.152;2022-12-07T09:11:44;101818.72;;;2.80;100.00
51289;BME280;37372;52.294;5.152;2022-12-07T09:14:10;101816.69;;;2.89;100.00
51289;BME280;37372;52.294;5.152;2022-12-07T09:16:37;101814.38;;;2.91;100.00
51289;BME280;37372;52.294;5.152;2022-12-07T09:19:02;101810.72;;;2.99;100.00
51289;BME280;37372;52.294;5.152;2022-12-07T09:21:27;101818.13;;;3.08;100.00
51289;BME280;37372;52.294;5.152;2022-12-07T09:23:53;101820.16;;;3.19;100.00
51289;BME280;37372;52.294;5.152;2022-12-07T09:26:18;101818.66;;;3.22;100.00
51289;BME280;37372;52.294;5.152;2022-12-07T09:28:44;101814.88;;;3.26;100.00
51289;BME280;37372;52.294;5.152;2022-12-07T09:31:09;101808.16;;;3.28;100.00
51289;BME280;37372;52.294;5.152;2022-12-07T09:33:34;101814.19;;;3.30;100.00
51289;BME280;37372;52.294;5.152;2022-12-07T09:36:00;101815.13;;;3.34;100.00
51289;BME280;37372;52.294;5.152;2022-12-07T09:38:25;101805.75;;;3.38;100.00
51289;BME280;37372;52.294;5.152;2022-12-07T09:40:51;101813.19;;;3.46;100.00
51289;BME280;37372;52.294;5.152;2022-12-07T09:43:20;101807.66;;;3.46;100.00
51289;BME280;37372;52.294;5.152;2022-12-07T09:45:48;101809.41;;;3.51;100.00
51289;BME280;37372;52.294;5.152;2022-12-07T09:48:18;101803.03;;;3.51;100.00
51289;BME280;37372;52.294;5.152;2022-12-07T09:50:46;101807.66;;;3.46;100.00
51289;BME280;37372;52.294;5.152;2022-12-07T09:53:20;101805.91;;;3.42;100.00
51289;BME280;37372;52.294;5.152;2022-12-07T09:55:47;101807.94;;;3.33;100.00
51289;BME280;37372;52.294;5.152;2022-12-07T09:58:22;101804.84;;;3.34;100.00
51289;BME280;37372;52.294;5.152;2022-12-07T10:00:50;101807.94;;;3.33;100.00
51289;BME280;37372;52.294;5.152;2022-12-07T10:03:18;101800.22;;;3.38;100.00
51289;BME280;37372;52.294;5.152;2022-12-07T10:05:49;101808.22;;;3.40;100.00
51289;BME280;37372;52.294;5.152;2022-12-07T10:08:15;101794.66;;;3.38;100.00
51289;BME280;37372;52.294;5.152;2022-12-07T10:10:43;101794.22;;;3.36;100.00
51289;BME280;37372;52.294;5.152;2022-12-07T10:13:11;101798.59;;;3.37;100.00
51289;BME280;37372;52.294;5.152;2022-12-07T10:15:52;101794.66;;;3.38;100.00
51289;BME280;37372;52.294;5.152;2022-12-07T10:18:26;101794.91;;;3.45;100.00
51289;BME280;37372;52.294;5.152;2022-12-07T10:23:28;101789.06;;;3.59;100.00
51289;BME280;37372;52.294;5.152;2022-12-07T10:25:56;101792.53;;;3.68;100.00
51289;BME280;37372;52.294;5.152;2022-12-07T10:28:22;101786.41;;;3.75;100.00
51289;BME280;37372;52.294;5.152;2022-12-07T10:31:02;101786.06;;;3.89;100.00
51289;BME280;37372;52.294;5.152;2022-12-07T10:33:35;101788.50;;;3.90;100.00
51289;BME280;37372;52.294;5.152;2022-12-07T10:36:16;101783.44;;;3.92;100.00
51289;BME280;37372;52.294;5.152;2022-12-07T10:38:52;101781.78;;;4.04;100.00
51289;BME280;37372;52.294;5.152;2022-12-07T10:41:18;101785.84;;;4.06;100.00
51289;BME280;37372;52.294;5.152;2022-12-07T10:43:49;101781.78;;;4.04;100.00
51289;BME280;37372;52.294;5.152;2022-12-07T10:49:39;101782.97;;;3.90;100.00
51289;BME280;37372;52.294;5.152;2022-12-07T11:04:03;101751.72;;;3.57;100.00
51289;BME280;37372;52.294;5.152;2022-12-07T11:07:02;101751.59;;;3.53;100.00
51289;BME280;37372;52.294;5.152;2022-12-07T11:09:53;101750.91;;;3.56;100.00
51289;BME280;37372;52.294;5.152;2022-12-07T11:15:22;101747.91;;;3.61;100.00
51289;BME280;37372;52.294;5.152;2022-12-07T11:18:06;101753.69;;;3.68;100.00
51289;BME280;37372;52.294;5.152;2022-12-07T11:20:47;101746.75;;;3.75;100.00
51289;BME280;37372;52.294;5.152;2022-12-07T11:26:31;101736.22;;;3.92;100.00
51289;BME280;37372;52.294;5.152;2022-12-07T11:35:05;101725.06;;;4.17;100.00
51289;BME280;37372;52.294;5.152;2022-12-07T11:37:35;101729.25;;;4.23;100.00
51289;BME280;37372;52.294;5.152;2022-12-07T11:40:23;101719.75;;;4.24;100.00
51289;BME280;37372;52.294;5.152;2022-12-07T11:42:59;101712.81;;;4.30;100.00
51289;BME280;37372;52.294;5.152;2022-12-07T11:45:29;101717.28;;;4.35;100.00
51289;BME280;37372;52.294;5.152;2022-12-07T11:48:00;101717.97;;;4.44;100.00
51289;BME280;37372;52.294;5.152;2022-12-07T11:50:38;101706.25;;;4.51;100.00
51289;BME280;37372;52.294;5.152;2022-12-07T11:55:57;101700.00;;;4.54;100.00
51289;BME280;37372;52.294;5.152;2022-12-07T12:01:24;101704.28;;;4.79;100.00
51289;BME280;37372;52.294;5.152;2022-12-07T12:06:26;101697.81;;;5.19;100.00
51289;BME280;37372;52.294;5.152;2022-12-07T12:09:06;101691.34;;;5.31;100.00
51289;BME280;37372;52.294;5.152;2022-12-07T12:18:26;101713.22;;;4.45;100.00
51289;BME280;37372;52.294;5.152;2022-12-07T12:21:02;101698.81;;;4.14;100.00
51289;BME280;37372;52.294;5.152;2022-12-07T12:23:39;101684.84;;;3.99;100.00
51289;BME280;37372;52.294;5.152;2022-12-07T12:26:24;101683.38;;;3.89;100.00
51289;BME280;37372;52.294;5.152;2022-12-07T12:29:20;101678.75;;;3.81;100.00
51289;BME280;37372;52.294;5.152;2022-12-07T12:31:47;101681.44;;;3.77;100.00
51289;BME280;37372;52.294;5.152;2022-12-07T12:34:38;101680.72;;;3.68;100.00
51289;BME280;37372;52.294;5.152;2022-12-07T12:42:48;101667.22;;;3.66;100.00
51289;BME280;37372;52.294;5.152;2022-12-07T12:45:30;101664.53;;;3.70;100.00
51289;BME280;37372;52.294;5.152;2022-12-07T12:50:34;101668.44;;;3.81;100.00
51289;BME280;37372;52.294;5.152;2022-12-07T12:58:29;101658.28;;;3.85;100.00
51289;BME280;37372;52.294;5.152;2022-12-07T13:03:58;101658.91;;;4.07;100.00
51289;BME280;37372;52.294;5.152;2022-12-07T13:08:50;101646.28;;;4.50;100.00
51289;BME280;37372;52.294;5.152;2022-12-07T13:11:36;101656.59;;;4.49;100.00
51289;BME280;37372;52.294;5.152;2022-12-07T13:17:46;101650.13;;;4.45;100.00
51289;BME280;37372;52.294;5.152;2022-12-07T13:19:55;101653.31;;;4.31;100.00
51289;BME280;37372;52.294;5.152;2022-12-07T13:25:33;101625.22;;;4.21;100.00
51289;BME280;37372;52.294;5.152;2022-12-07T13:28:09;101621.19;;;4.18;100.00
51289;BME280;37372;52.294;5.152;2022-12-07T13:30:50;101620.38;;;4.18;100.00
51289;BME280;37372;52.294;5.152;2022-12-07T13:33:19;101619.13;;;4.15;100.00
51289;BME280;37372;52.294;5.152;2022-12-07T13:35:44;101613.09;;;4.13;100.00
51289;BME280;37372;52.294;5.152;2022-12-07T13:38:24;101605.13;;;4.11;100.00
51289;BME280;37372;52.294;5.152;2022-12-07T13:41:25;101602.72;;;4.10;100.00
51289;BME280;37372;52.294;5.152;2022-12-07T13:49:30;101599.47;;;4.08;100.00
51289;BME280;37372;52.294;5.152;2022-12-07T13:54:46;101586.84;;;4.10;100.00
51289;BME280;37372;52.294;5.152;2022-12-07T13:57:12;101595.63;;;4.12;100.00
51289;BME280;37372;52.294;5.152;2022-12-07T13:59:38;101597.72;;;4.16;100.00
51289;BME280;37372;52.294;5.152;2022-12-07T14:02:18;101579.88;;;4.17;100.00
51289;BME280;37372;52.294;5.152;2022-12-07T14:04:43;101578.34;;;4.19;100.00
51289;BME280;37372;52.294;5.152;2022-12-07T14:07:25;101583.19;;;4.22;100.00
51289;BME280;37372;52.294;5.152;2022-12-07T14:10:25;101576.97;;;4.25;100.00
51289;BME280;37372;52.294;5.152;2022-12-07T14:12:50;101581.44;;;4.30;100.00
51289;BME280;37372;52.294;5.152;2022-12-07T14:15:22;101569.25;;;4.34;100.00
51289;BME280;37372;52.294;5.152;2022-12-07T14:17:53;101578.97;;;4.41;100.00
51289;BME280;37372;52.294;5.152;2022-12-07T14:22:55;101573.41;;;4.41;100.00
51289;BME280;37372;52.294;5.152;2022-12-07T14:25:23;101564.34;;;4.44;100.00
51289;BME280;37372;52.294;5.152;2022-12-07T14:30:26;101597.75;;;4.31;100.00
51289;BME280;37372;52.294;5.152;2022-12-07T14:33:01;101597.28;;;4.01;100.00
51289;BME280;37372;52.294;5.152;2022-12-07T14:35:28;101589.84;;;3.77;100.00
51289;BME280;37372;52.294;5.152;2022-12-07T14:37:54;101585.38;;;3.60;100.00
51289;BME280;37372;52.294;5.152;2022-12-07T14:40:25;101577.84;;;3.48;100.00
51289;BME280;37372;52.294;5.152;2022-12-07T14:43:16;101564.13;;;3.40;100.00
51289;BME280;37372;52.294;5.152;2022-12-07T14:45:42;101564.59;;;3.42;100.00
51289;BME280;37372;52.294;5.152;2022-12-07T14:48:11;101556.16;;;3.38;100.00